createdAt,value
2018-01-19T00:00:20.607Z,0
2018-01-19T00:01:25.882Z,0
2018-01-19T00:02:31.381Z,0
2018-01-19T00:03:37.406Z,0
2018-01-19T00:04:42.854Z,0
2018-01-19T00:05:47.799Z,0
2018-01-19T00:06:53.288Z,0
2018-01-19T00:07:58.735Z,0
2018-01-19T00:09:04.232Z,0
2018-01-19T00:10:09.660Z,0
2018-01-19T00:11:15.274Z,0
2018-01-19T00:12:20.480Z,0
2018-01-19T00:13:26.533Z,0
2018-01-19T00:14:31.987Z,0
2018-01-19T00:15:37.482Z,0
2018-01-19T00:16:42.951Z,0
2018-01-19T00:17:48.419Z,0
2018-01-19T00:18:53.626Z,0
2018-01-19T00:19:58.524Z,0
2018-01-19T00:21:03.731Z,0
2018-01-19T00:22:09.458Z,0
2018-01-19T00:23:14.937Z,0
2018-01-19T00:24:20.439Z,0
2018-01-19T00:25:40.500Z,0
2018-01-19T00:26:45.991Z,0
2018-01-19T00:27:51.525Z,0
2018-01-19T00:28:56.698Z,0
2018-01-19T00:30:02.144Z,0
2018-01-19T00:31:07.884Z,0
2018-01-19T00:32:12.508Z,0
2018-01-19T00:33:17.997Z,0
2018-01-19T00:34:23.714Z,0
2018-01-19T00:35:28.616Z,0
2018-01-19T00:36:34.306Z,0
2018-01-19T00:37:39.767Z,0
2018-01-19T00:38:45.206Z,0
2018-01-19T00:39:50.900Z,0
2018-01-19T00:40:56.133Z,0
2018-01-19T00:42:01.312Z,0
2018-01-19T00:43:06.745Z,0
2018-01-19T00:44:12.229Z,0
2018-01-19T00:45:17.698Z,0
2018-01-19T00:46:23.452Z,0
2018-01-19T00:47:28.924Z,0
2018-01-19T00:48:34.800Z,0
2018-01-19T00:49:39.976Z,0
2018-01-19T00:50:45.164Z,0
2018-01-19T00:51:50.371Z,0
2018-01-19T00:52:55.843Z,0
2018-01-19T00:54:01.335Z,0
2018-01-19T00:55:06.898Z,0
2018-01-19T00:56:12.352Z,0
2018-01-19T00:57:17.553Z,0
2018-01-19T00:58:23.292Z,0
2018-01-19T00:59:28.775Z,0
2018-01-19T01:00:34.252Z,0
2018-01-19T01:01:39.733Z,0
2018-01-19T01:02:45.186Z,0
2018-01-19T01:03:50.452Z,0
2018-01-19T01:04:55.647Z,0
2018-01-19T01:06:01.115Z,0
2018-01-19T01:07:06.663Z,0
2018-01-19T01:08:12.134Z,0
2018-01-19T01:09:17.631Z,0
2018-01-19T01:10:23.357Z,0
2018-01-19T01:11:28.583Z,0
2018-01-19T01:12:34.576Z,0
2018-01-19T01:13:40.039Z,0
2018-01-19T01:14:45.525Z,0
2018-01-19T01:15:51.498Z,0
2018-01-19T01:16:56.099Z,0
2018-01-19T01:18:00.692Z,0
2018-01-19T01:19:06.413Z,0
2018-01-19T01:20:11.602Z,0
2018-01-19T01:21:17.049Z,0
2018-01-19T01:22:22.785Z,0
2018-01-19T01:23:28.271Z,0
2018-01-19T01:24:33.976Z,0
2018-01-19T01:25:38.893Z,0
2018-01-19T01:26:44.365Z,0
2018-01-19T01:27:49.969Z,0
2018-01-19T01:28:54.322Z,0
2018-01-19T01:29:59.791Z,0
2018-01-19T01:31:05.209Z,0
2018-01-19T01:32:10.412Z,0
2018-01-19T01:33:15.641Z,0
2018-01-19T01:34:21.063Z,0
2018-01-19T01:35:26.539Z,0
2018-01-19T01:36:32.097Z,0
2018-01-19T01:37:37.577Z,0
2018-01-19T01:38:43.040Z,0
2018-01-19T01:39:49.020Z,0
2018-01-19T01:40:53.921Z,0
2018-01-19T01:41:59.395Z,0
2018-01-19T01:43:04.826Z,0
2018-01-19T01:44:09.766Z,0
2018-01-19T01:45:14.981Z,0
2018-01-19T01:46:20.745Z,0
2018-01-19T01:47:26.226Z,0
2018-01-19T01:48:31.628Z,0
2018-01-19T01:49:37.113Z,0
2018-01-19T01:50:41.754Z,0
2018-01-19T01:51:47.493Z,0
2018-01-19T01:52:52.651Z,0
2018-01-19T01:53:58.151Z,0
2018-01-19T01:55:03.312Z,0
2018-01-19T01:56:07.972Z,0
2018-01-19T01:57:12.861Z,0
2018-01-19T01:58:18.393Z,0
2018-01-19T01:59:23.926Z,0
2018-01-19T02:00:29.265Z,0
2018-01-19T02:01:34.750Z,0
2018-01-19T02:02:39.954Z,0
2018-01-19T02:03:45.490Z,0
2018-01-19T02:04:50.682Z,0
2018-01-19T02:05:55.589Z,0
2018-01-19T02:07:01.442Z,0
2018-01-19T02:08:06.647Z,0
2018-01-19T02:09:11.824Z,0
2018-01-19T02:10:17.256Z,0
2018-01-19T02:11:22.758Z,0
2018-01-19T02:12:28.513Z,0
2018-01-19T02:13:33.988Z,0
2018-01-19T02:14:39.170Z,0
2018-01-19T02:15:44.895Z,0
2018-01-19T02:16:50.079Z,0
2018-01-19T02:17:55.541Z,0
2018-01-19T02:19:00.988Z,0
2018-01-19T02:20:05.605Z,0
2018-01-19T02:21:10.780Z,0
2018-01-19T02:22:16.440Z,0
2018-01-19T02:23:21.912Z,0
2018-01-19T02:24:27.751Z,0
2018-01-19T02:25:33.196Z,0
2018-01-19T02:26:38.667Z,0
2018-01-19T02:27:44.183Z,0
2018-01-19T02:28:49.695Z,0
2018-01-19T02:29:54.595Z,0
2018-01-19T02:31:00.608Z,0
2018-01-19T02:32:05.781Z,0
2018-01-19T02:33:10.956Z,0
2018-01-19T02:34:16.375Z,0
2018-01-19T02:35:21.558Z,0
2018-01-19T02:36:27.488Z,0
2018-01-19T02:37:32.440Z,0
2018-01-19T02:38:37.913Z,0
2018-01-19T02:39:43.922Z,0
2018-01-19T02:40:49.428Z,0
2018-01-19T02:41:54.647Z,0
2018-01-19T02:43:00.362Z,0
2018-01-19T02:44:05.578Z,0
2018-01-19T02:45:10.535Z,0
2018-01-19T02:46:16.269Z,0
2018-01-19T02:47:21.743Z,0
2018-01-19T02:48:27.177Z,0
2018-01-19T02:49:32.671Z,0
2018-01-19T02:50:37.849Z,0
2018-01-19T02:51:43.603Z,0
2018-01-19T02:52:49.065Z,0
2018-01-19T02:53:53.991Z,0
2018-01-19T02:54:59.436Z,0
2018-01-19T02:56:04.892Z,0
2018-01-19T02:57:09.507Z,0
2018-01-19T02:58:15.328Z,0
2018-01-19T02:59:20.787Z,0
2018-01-19T03:00:41.723Z,0
2018-01-19T03:01:46.886Z,0
2018-01-19T03:02:52.372Z,0
2018-01-19T03:03:57.518Z,0
2018-01-19T03:05:02.696Z,0
2018-01-19T03:06:07.315Z,0
2018-01-19T03:07:13.147Z,0
2018-01-19T03:08:18.038Z,0
2018-01-19T03:09:23.515Z,0
2018-01-19T03:10:43.638Z,0
2018-01-19T03:11:48.885Z,0
2018-01-19T03:12:54.325Z,0
2018-01-19T03:13:59.246Z,0
2018-01-19T03:15:04.413Z,0
2018-01-19T03:16:09.930Z,0
2018-01-19T03:17:14.857Z,0
2018-01-19T03:18:20.355Z,0
2018-01-19T03:19:25.520Z,0
2018-01-19T03:20:30.737Z,0
2018-01-19T03:21:36.577Z,0
2018-01-19T03:22:42.033Z,0
2018-01-19T03:23:47.208Z,0
2018-01-19T03:24:52.734Z,0
2018-01-19T03:25:57.917Z,0
2018-01-19T03:27:03.408Z,0
2018-01-19T03:28:08.591Z,0
2018-01-19T03:29:13.516Z,0
2018-01-19T03:30:18.978Z,0
2018-01-19T03:31:24.736Z,0
2018-01-19T03:32:30.221Z,0
2018-01-19T03:33:35.511Z,0
2018-01-19T03:34:40.671Z,0
2018-01-19T03:35:45.865Z,0
2018-01-19T03:36:50.998Z,0
2018-01-19T03:37:56.469Z,0
2018-01-19T03:39:01.922Z,0
2018-01-19T03:40:07.450Z,0
2018-01-19T03:41:12.617Z,0
2018-01-19T03:42:17.819Z,0
2018-01-19T03:43:23.063Z,0
2018-01-19T03:44:28.538Z,0
2018-01-19T03:45:33.855Z,0
2018-01-19T03:46:39.345Z,0
2018-01-19T03:47:44.827Z,0
2018-01-19T03:48:50.534Z,0
2018-01-19T03:49:55.996Z,0
2018-01-19T03:51:01.441Z,0
2018-01-19T03:52:06.959Z,0
2018-01-19T03:53:12.426Z,0
2018-01-19T03:54:17.887Z,0
2018-01-19T03:55:23.739Z,0
2018-01-19T03:56:28.916Z,0
2018-01-19T03:57:34.714Z,0
2018-01-19T03:58:40.223Z,0
2018-01-19T03:59:45.684Z,0
2018-01-19T04:00:50.823Z,0
2018-01-19T04:01:55.459Z,0
2018-01-19T04:03:00.667Z,0
2018-01-19T04:04:06.489Z,0
2018-01-19T04:05:11.689Z,0
2018-01-19T04:06:17.144Z,0
2018-01-19T04:07:22.963Z,0
2018-01-19T04:08:28.126Z,0
2018-01-19T04:09:34.159Z,0
2018-01-19T04:10:39.630Z,0
2018-01-19T04:11:44.823Z,0
2018-01-19T04:12:50.544Z,0
2018-01-19T04:13:55.753Z,0
2018-01-19T04:15:01.263Z,0
2018-01-19T04:16:06.460Z,0
2018-01-19T04:17:11.668Z,0
2018-01-19T04:18:17.149Z,0
2018-01-19T04:19:22.869Z,0
2018-01-19T04:20:28.372Z,0
2018-01-19T04:21:33.925Z,0
2018-01-19T04:22:39.104Z,0
2018-01-19T04:23:44.601Z,0
2018-01-19T04:24:50.046Z,0
2018-01-19T04:25:55.001Z,0
2018-01-19T04:27:00.211Z,0
2018-01-19T04:28:05.939Z,0
2018-01-19T04:29:10.556Z,0
2018-01-19T04:30:16.019Z,0
2018-01-19T04:31:21.550Z,0
2018-01-19T04:32:27.033Z,0
2018-01-19T04:33:32.755Z,0
2018-01-19T04:34:38.268Z,0
2018-01-19T04:35:43.441Z,0
2018-01-19T04:36:48.960Z,0
2018-01-19T04:37:54.437Z,0
2018-01-19T04:38:59.938Z,0
2018-01-19T04:40:05.195Z,0
2018-01-19T04:41:10.402Z,0
2018-01-19T04:42:15.874Z,0
2018-01-19T04:43:21.592Z,0
2018-01-19T04:44:26.769Z,0
2018-01-19T04:45:32.942Z,0
2018-01-19T04:46:38.407Z,0
2018-01-19T04:47:43.893Z,0
2018-01-19T04:48:49.819Z,0
2018-01-19T04:49:54.712Z,0
2018-01-19T04:51:00.181Z,0
2018-01-19T04:52:05.694Z,0
2018-01-19T04:53:10.612Z,0
2018-01-19T04:54:16.070Z,0
2018-01-19T04:55:21.852Z,0
2018-01-19T04:56:27.312Z,0
2018-01-19T04:57:32.545Z,0
2018-01-19T04:58:37.441Z,0
2018-01-19T04:59:42.616Z,0
2018-01-19T05:00:48.385Z,0
2018-01-19T05:01:53.268Z,0
2018-01-19T05:02:58.459Z,0
2018-01-19T05:04:04.374Z,0
2018-01-19T05:05:09.560Z,0
2018-01-19T05:06:15.071Z,0
2018-01-19T05:07:20.962Z,0
2018-01-19T05:08:26.446Z,0
2018-01-19T05:09:32.455Z,0
2018-01-19T05:10:37.926Z,0
2018-01-19T05:11:43.393Z,0
2018-01-19T05:12:48.992Z,0
2018-01-19T05:13:54.209Z,0
2018-01-19T05:14:59.424Z,0
2018-01-19T05:16:05.186Z,0
2018-01-19T05:17:09.803Z,0
2018-01-19T05:18:14.997Z,0
2018-01-19T05:19:20.781Z,0
2018-01-19T05:20:25.938Z,0
2018-01-19T05:21:31.780Z,0
2018-01-19T05:22:36.664Z,0
2018-01-19T05:23:42.126Z,0
2018-01-19T05:24:47.860Z,0
2018-01-19T05:25:53.047Z,0
2018-01-19T05:26:58.251Z,0
2018-01-19T05:28:03.732Z,0
2018-01-19T05:29:08.630Z,0
2018-01-19T05:30:13.234Z,0
2018-01-19T05:31:18.690Z,0
2018-01-19T05:32:24.154Z,0
2018-01-19T05:33:30.171Z,0
2018-01-19T05:34:35.359Z,0
2018-01-19T05:35:40.538Z,0
2018-01-19T05:36:46.267Z,0
2018-01-19T05:37:51.438Z,0
2018-01-19T05:38:56.642Z,0
2018-01-19T05:40:02.008Z,0
2018-01-19T05:41:06.908Z,0
2018-01-19T05:42:12.092Z,0
2018-01-19T05:43:17.540Z,0
2018-01-19T05:44:22.990Z,0
2018-01-19T05:45:28.872Z,0
2018-01-19T05:46:34.342Z,0
2018-01-19T05:47:39.542Z,0
2018-01-19T05:48:45.239Z,0
2018-01-19T05:49:50.173Z,0
2018-01-19T05:50:55.646Z,0
2018-01-19T05:52:01.215Z,0
2018-01-19T05:53:06.106Z,0
2018-01-19T05:54:11.013Z,0
2018-01-19T05:55:16.718Z,0
2018-01-19T05:56:22.188Z,0
2018-01-19T05:57:28.227Z,0
2018-01-19T05:58:33.127Z,0
2018-01-19T05:59:38.316Z,0
2018-01-19T06:00:43.845Z,0
2018-01-19T06:01:49.020Z,0
2018-01-19T06:02:54.186Z,0
2018-01-19T06:03:59.916Z,0
2018-01-19T06:05:05.093Z,0
2018-01-19T06:06:10.279Z,0
2018-01-19T06:07:15.827Z,0
2018-01-19T06:08:21.304Z,0
2018-01-19T06:09:27.202Z,0
2018-01-19T06:10:32.384Z,0
2018-01-19T06:11:37.560Z,0
2018-01-19T06:12:43.172Z,0
2018-01-19T06:13:48.355Z,0
2018-01-19T06:14:53.565Z,0
2018-01-19T06:15:58.758Z,0
2018-01-19T06:17:04.411Z,0
2018-01-19T06:18:09.593Z,0
2018-01-19T06:19:14.747Z,0
2018-01-19T06:20:20.193Z,0
2018-01-19T06:21:40.295Z,0
2018-01-19T06:22:45.736Z,0
2018-01-19T06:23:50.910Z,0
2018-01-19T06:24:56.716Z,0
2018-01-19T06:26:01.923Z,0
2018-01-19T06:27:06.865Z,0
2018-01-19T06:28:12.307Z,0
2018-01-19T06:29:17.806Z,0
2018-01-19T06:30:23.282Z,0
2018-01-19T06:31:28.822Z,0
2018-01-19T06:32:34.029Z,0
2018-01-19T06:33:39.817Z,0
2018-01-19T06:34:45.302Z,0
2018-01-19T06:35:50.404Z,0
2018-01-19T06:36:55.381Z,0
2018-01-19T06:38:00.875Z,0
2018-01-19T06:39:06.344Z,0
2018-01-19T06:40:12.071Z,0
2018-01-19T06:41:17.555Z,0
2018-01-19T06:42:23.003Z,0
2018-01-19T06:43:43.468Z,0
2018-01-19T06:44:48.934Z,0
2018-01-19T06:45:54.376Z,0
2018-01-19T06:46:59.863Z,0
2018-01-19T06:48:05.304Z,0
2018-01-19T06:49:10.556Z,0
2018-01-19T06:50:15.778Z,0
2018-01-19T06:51:21.242Z,0
2018-01-19T06:52:27.113Z,0
2018-01-19T06:53:32.566Z,0
2018-01-19T06:54:37.856Z,0
2018-01-19T06:55:43.348Z,0
2018-01-19T06:56:48.531Z,0
2018-01-19T06:57:54.300Z,0
2018-01-19T06:58:59.219Z,0
2018-01-19T07:00:04.387Z,0
2018-01-19T07:01:09.620Z,0
2018-01-19T07:02:14.808Z,0
2018-01-19T07:03:20.282Z,0
2018-01-19T07:04:25.154Z,0
2018-01-19T07:05:29.787Z,0
2018-01-19T07:06:35.508Z,0
2018-01-19T07:07:40.987Z,0
2018-01-19T07:08:46.496Z,0
2018-01-19T07:09:51.751Z,0
2018-01-19T07:10:56.928Z,0
2018-01-19T07:12:01.824Z,0
2018-01-19T07:13:07.250Z,0
2018-01-19T07:14:12.872Z,0
2018-01-19T07:15:18.338Z,0
2018-01-19T07:16:23.542Z,0
2018-01-19T07:17:29.013Z,0
2018-01-19T07:18:34.706Z,0
2018-01-19T07:19:40.191Z,0
2018-01-19T07:20:45.656Z,0
2018-01-19T07:21:50.894Z,0
2018-01-19T07:22:55.789Z,0
2018-01-19T07:24:01.248Z,0
2018-01-19T07:25:07.094Z,0
2018-01-19T07:26:12.286Z,0
2018-01-19T07:27:17.758Z,0
2018-01-19T07:28:23.306Z,0
2018-01-19T07:29:28.771Z,0
2018-01-19T07:30:34.498Z,0
2018-01-19T07:31:39.681Z,0
2018-01-19T07:32:45.159Z,0
2018-01-19T07:33:50.484Z,0
2018-01-19T07:34:55.428Z,0
2018-01-19T07:36:00.357Z,0
2018-01-19T07:37:06.233Z,0
2018-01-19T07:38:11.728Z,0
2018-01-19T07:39:16.897Z,0
2018-01-19T07:40:21.847Z,0
2018-01-19T07:41:27.324Z,0
2018-01-19T07:42:33.451Z,0
2018-01-19T07:43:38.619Z,0
2018-01-19T07:44:44.071Z,0
2018-01-19T07:45:49.273Z,0
2018-01-19T07:46:54.736Z,0
2018-01-19T07:48:00.353Z,0
2018-01-19T07:49:05.273Z,0
2018-01-19T07:50:10.474Z,0
2018-01-19T07:51:15.945Z,0
2018-01-19T07:52:21.127Z,0
2018-01-19T07:53:26.909Z,0
2018-01-19T07:54:32.578Z,0
2018-01-19T07:55:37.487Z,0
2018-01-19T07:56:42.690Z,399
2018-01-19T07:57:47.903Z,389
2018-01-19T07:58:52.711Z,399
2018-01-19T07:59:57.943Z,368
2018-01-19T08:01:03.145Z,399
2018-01-19T08:02:08.618Z,368
2018-01-19T08:03:14.083Z,399
2018-01-19T08:04:19.839Z,399
2018-01-19T08:05:24.753Z,368
2018-01-19T08:06:30.754Z,384
2018-01-19T08:07:36.258Z,384
2018-01-19T08:08:41.459Z,414
2018-01-19T08:09:46.987Z,399
2018-01-19T08:10:52.193Z,384
2018-01-19T08:11:57.103Z,399
2018-01-19T08:13:02.677Z,399
2018-01-19T08:14:08.169Z,399
2018-01-19T08:15:13.085Z,389
2018-01-19T08:16:18.252Z,399
2018-01-19T08:17:23.740Z,414
2018-01-19T08:18:29.329Z,399
2018-01-19T08:19:34.812Z,399
2018-01-19T08:20:39.997Z,384
2018-01-19T08:21:44.860Z,384
2018-01-19T08:22:50.036Z,384
2018-01-19T08:23:55.233Z,414
2018-01-19T08:25:00.669Z,414
2018-01-19T08:26:05.867Z,384
2018-01-19T08:27:10.717Z,384
2018-01-19T08:28:15.874Z,399
2018-01-19T08:29:21.026Z,399
2018-01-19T08:30:26.625Z,414
2018-01-19T08:31:32.104Z,399
2018-01-19T08:32:36.996Z,393
2018-01-19T08:33:42.728Z,399
2018-01-19T08:34:47.925Z,409
2018-01-19T08:35:53.087Z,414
2018-01-19T08:36:58.016Z,409
2018-01-19T08:38:03.484Z,378
2018-01-19T08:39:08.115Z,393
2018-01-19T08:40:13.546Z,409
2018-01-19T08:41:18.736Z,409
2018-01-19T08:43:44.353Z,409
2018-01-19T08:44:49.562Z,399
2018-01-19T08:45:55.373Z,393
2018-01-19T08:47:00.904Z,424
2018-01-19T08:48:05.827Z,414
2018-01-19T08:49:11.627Z,409
2018-01-19T08:50:17.321Z,409
2018-01-19T08:51:22.229Z,399
2018-01-19T08:52:28.127Z,429
2018-01-19T08:53:33.604Z,414
2018-01-19T08:54:39.437Z,399
2018-01-19T08:55:44.921Z,409
2018-01-19T08:56:49.834Z,429
2018-01-19T08:57:54.746Z,409
2018-01-19T08:58:59.951Z,414
2018-01-19T09:00:05.407Z,399
2018-01-19T09:01:10.579Z,409
2018-01-19T09:02:14.931Z,429
2018-01-19T09:03:20.426Z,429
2018-01-19T09:04:25.614Z,399
2018-01-19T09:05:31.074Z,414
2018-01-19T09:06:36.843Z,399
2018-01-19T09:07:42.018Z,409
2018-01-19T09:08:47.696Z,414
2018-01-19T09:09:52.952Z,409
2018-01-19T09:10:57.840Z,424
2018-01-19T09:12:02.788Z,393
2018-01-19T09:13:08.229Z,409
2018-01-19T09:14:13.733Z,409
2018-01-19T09:15:19.244Z,409
2018-01-19T09:16:24.716Z,414
2018-01-19T09:17:29.901Z,384
2018-01-19T09:18:36.076Z,384
2018-01-19T09:19:41.258Z,409
2018-01-19T09:20:47.914Z,399
2018-01-19T09:21:53.140Z,384
2018-01-19T09:22:58.319Z,409
2018-01-19T09:24:03.619Z,414
2018-01-19T09:25:09.376Z,384
2018-01-19T09:26:14.777Z,409
2018-01-19T09:27:19.953Z,399
2018-01-19T09:28:25.387Z,378
2018-01-19T09:29:30.858Z,393
2018-01-19T09:30:36.382Z,409
2018-01-19T09:31:42.020Z,409
2018-01-19T09:32:47.197Z,393
2018-01-19T09:33:52.980Z,414
2018-01-19T09:34:58.597Z,409
2018-01-19T09:36:04.062Z,409
2018-01-19T09:37:09.543Z,409
2018-01-19T09:38:15.009Z,393
2018-01-19T09:39:20.462Z,393
2018-01-19T09:40:25.889Z,409
2018-01-19T09:41:31.082Z,424
2018-01-19T09:42:36.792Z,393
2018-01-19T09:43:41.998Z,409
2018-01-19T09:44:47.369Z,399
2018-01-19T09:45:53.086Z,393
2018-01-19T09:46:58.619Z,393
2018-01-19T09:48:04.162Z,424
2018-01-19T09:49:09.074Z,393
2018-01-19T09:50:14.540Z,393
2018-01-19T09:51:19.722Z,393
2018-01-19T09:52:24.675Z,424
2018-01-19T09:53:30.297Z,424
2018-01-19T09:54:36.102Z,393
2018-01-19T09:55:41.622Z,409
2018-01-19T09:56:47.116Z,414
2018-01-19T09:57:52.261Z,414
2018-01-19T09:58:57.419Z,414
2018-01-19T10:00:02.636Z,409
2018-01-19T10:01:08.413Z,399
2018-01-19T10:02:14.211Z,429
2018-01-19T10:03:19.676Z,409
2018-01-19T10:04:24.825Z,414
2018-01-19T10:05:30.011Z,414
2018-01-19T10:06:35.422Z,399
2018-01-19T10:07:40.901Z,409
2018-01-19T10:08:46.092Z,414
2018-01-19T10:09:51.868Z,414
2018-01-19T10:10:57.111Z,409
2018-01-19T10:12:02.574Z,399
2018-01-19T10:13:07.744Z,399
2018-01-19T10:14:13.382Z,429
2018-01-19T10:15:18.575Z,414
2018-01-19T10:16:24.329Z,409
2018-01-19T10:17:29.493Z,399
2018-01-19T10:18:34.694Z,399
2018-01-19T10:19:39.928Z,378
2018-01-19T10:20:44.837Z,409
2018-01-19T10:21:50.031Z,409
2018-01-19T10:22:55.483Z,393
2018-01-19T10:24:00.952Z,414
2018-01-19T10:25:06.468Z,393
2018-01-19T10:26:11.661Z,393
2018-01-19T10:27:16.829Z,409
2018-01-19T10:28:22.835Z,399
2018-01-19T10:29:28.314Z,414
2018-01-19T10:30:34.112Z,409
2018-01-19T10:31:39.579Z,429
2018-01-19T10:32:45.040Z,409
2018-01-19T10:33:50.023Z,399
2018-01-19T10:34:54.920Z,429
2018-01-19T10:36:00.120Z,409
2018-01-19T10:37:05.908Z,409
2018-01-19T10:38:11.080Z,424
2018-01-19T10:39:15.969Z,429
2018-01-19T10:40:21.272Z,414
2018-01-19T10:41:26.968Z,414
2018-01-19T10:42:32.113Z,414
2018-01-19T10:43:37.348Z,414
2018-01-19T10:44:42.559Z,414
2018-01-19T10:45:48.565Z,429
2018-01-19T10:46:54.011Z,444
2018-01-19T10:47:59.506Z,429
2018-01-19T10:49:05.317Z,429
2018-01-19T10:50:10.491Z,414
2018-01-19T10:51:15.671Z,414
2018-01-19T10:52:21.290Z,429
2018-01-19T10:53:26.759Z,414
2018-01-19T10:54:32.233Z,414
2018-01-19T10:55:37.701Z,409
2018-01-19T10:56:43.172Z,409
2018-01-19T10:57:48.348Z,429
2018-01-19T10:58:53.797Z,414
2018-01-19T10:59:59.260Z,414
2018-01-19T11:01:04.748Z,424
2018-01-19T11:02:09.955Z,414
2018-01-19T11:03:15.163Z,429
2018-01-19T11:04:20.728Z,414
2018-01-19T11:05:25.534Z,439
2018-01-19T11:06:31.691Z,439
2018-01-19T11:07:36.895Z,409
2018-01-19T11:08:42.091Z,439
2018-01-19T11:09:47.601Z,409
2018-01-19T11:10:52.822Z,424
2018-01-19T11:11:58.247Z,439
2018-01-19T11:13:03.968Z,424
2018-01-19T11:14:09.450Z,424
2018-01-19T11:15:14.086Z,439
2018-01-19T11:16:19.807Z,409
2018-01-19T11:17:24.968Z,424
2018-01-19T11:18:30.416Z,424
2018-01-19T11:19:35.598Z,409
2018-01-19T11:20:40.506Z,424
2018-01-19T11:21:46.240Z,439
2018-01-19T11:22:51.779Z,424
2018-01-19T11:23:56.969Z,424
2018-01-19T11:25:02.735Z,424
2018-01-19T11:26:07.937Z,424
2018-01-19T11:27:13.416Z,439
2018-01-19T11:28:19.317Z,439
2018-01-19T11:29:24.681Z,439
2018-01-19T11:30:30.230Z,409
2018-01-19T11:31:35.620Z,409
2018-01-19T11:32:40.699Z,439
2018-01-19T11:33:46.418Z,454
2018-01-19T11:34:51.506Z,454
2018-01-19T11:35:57.030Z,434
2018-01-19T11:37:02.863Z,439
2018-01-19T11:38:08.067Z,439
2018-01-19T11:39:13.249Z,454
2018-01-19T11:40:19.316Z,48
2018-01-19T11:41:24.793Z,48
2018-01-19T11:42:30.532Z,31
2018-01-19T11:43:36.001Z,31
2018-01-19T11:44:41.467Z,31
2018-01-19T11:45:46.952Z,31
2018-01-19T11:46:51.854Z,55
2018-01-19T11:47:57.044Z,31
2018-01-19T11:49:02.493Z,40
2018-01-19T11:50:07.408Z,40
2018-01-19T11:51:12.594Z,40
2018-01-19T11:52:18.413Z,40
2018-01-19T11:53:23.599Z,40
2018-01-19T11:54:29.564Z,40
2018-01-19T11:55:35.035Z,55
2018-01-19T11:56:40.230Z,31
2018-01-19T11:57:45.744Z,31
2018-01-19T11:58:50.344Z,55
2018-01-19T11:59:55.105Z,40
2018-01-19T12:01:00.905Z,40
2018-01-19T12:02:05.860Z,31
2018-01-19T12:03:11.071Z,31
2018-01-19T12:04:16.845Z,31
2018-01-19T12:05:22.006Z,48
2018-01-19T12:06:28.287Z,48
2018-01-19T12:07:33.596Z,48
2018-01-19T12:08:39.067Z,48
2018-01-19T12:09:44.886Z,31
2018-01-19T12:10:49.529Z,55
2018-01-19T12:11:54.460Z,55
2018-01-19T12:13:00.201Z,55
2018-01-19T12:14:05.402Z,31
2018-01-19T12:15:10.577Z,55
2018-01-19T12:16:16.048Z,40
2018-01-19T12:17:21.443Z,40
2018-01-19T12:18:27.215Z,40
2018-01-19T12:19:32.428Z,40
2018-01-19T12:20:37.895Z,40
2018-01-19T12:21:43.650Z,24
2018-01-19T12:22:49.462Z,24
2018-01-19T12:23:54.945Z,24
2018-01-19T12:25:00.405Z,24
2018-01-19T12:26:05.866Z,24
2018-01-19T12:27:11.339Z,24
2018-01-19T12:28:17.063Z,24
2018-01-19T12:29:22.570Z,24
2018-01-19T12:30:42.947Z,24
2018-01-19T12:31:48.140Z,24
2018-01-19T12:32:53.319Z,24
2018-01-19T12:33:59.234Z,24
2018-01-19T12:35:04.415Z,24
2018-01-19T12:36:09.292Z,24
2018-01-19T12:37:14.725Z,24
2018-01-19T12:38:20.185Z,24
2018-01-19T12:39:40.638Z,40
2018-01-19T12:40:46.100Z,40
2018-01-19T12:41:51.293Z,40
2018-01-19T12:42:57.159Z,24
2018-01-19T12:44:02.646Z,24
2018-01-19T12:45:07.834Z,40
2018-01-19T12:46:13.677Z,40
2018-01-19T12:47:19.155Z,40
2018-01-19T12:48:39.530Z,55
2018-01-19T12:49:45.032Z,31
2018-01-19T12:50:49.925Z,31
2018-01-19T12:51:55.178Z,31
2018-01-19T12:53:00.083Z,31
2018-01-19T12:54:05.696Z,31
2018-01-19T12:55:11.133Z,31
2018-01-19T12:56:16.628Z,31
2018-01-19T12:57:22.239Z,48
2018-01-19T12:58:28.518Z,48
2018-01-19T12:59:34.032Z,31
2018-01-19T13:00:39.842Z,31
2018-01-19T13:01:45.008Z,31
2018-01-19T13:02:50.228Z,31
2018-01-19T13:03:55.841Z,55
2018-01-19T13:05:01.029Z,55
2018-01-19T13:06:05.963Z,55
2018-01-19T13:07:11.672Z,55
2018-01-19T13:08:17.029Z,55
2018-01-19T13:09:22.497Z,55
2018-01-19T13:10:28.362Z,40
2018-01-19T13:11:33.846Z,40
2018-01-19T13:12:39.800Z,40
2018-01-19T13:13:45.291Z,40
2018-01-19T13:14:50.202Z,40
2018-01-19T13:15:55.720Z,40
2018-01-19T13:17:00.901Z,40
2018-01-19T13:18:06.379Z,40
2018-01-19T13:19:11.861Z,40
2018-01-19T13:20:17.349Z,40
2018-01-19T13:21:22.843Z,40
2018-01-19T13:22:28.342Z,40
2018-01-19T13:23:33.269Z,40
2018-01-19T13:24:38.626Z,40
2018-01-19T13:25:44.104Z,40
2018-01-19T13:26:48.713Z,40
2018-01-19T13:27:53.859Z,40
2018-01-19T13:28:59.328Z,55
2018-01-19T13:30:04.262Z,55
2018-01-19T13:31:09.918Z,55
2018-01-19T13:32:15.314Z,31
2018-01-19T13:33:20.984Z,31
2018-01-19T13:34:26.255Z,31
2018-01-19T13:35:31.702Z,48
2018-01-19T13:36:37.152Z,48
2018-01-19T13:37:42.354Z,48
2018-01-19T13:38:47.838Z,55
2018-01-19T13:39:52.710Z,48
2018-01-19T13:40:57.627Z,48
2018-01-19T13:42:02.233Z,48
2018-01-19T13:43:07.461Z,48
2018-01-19T13:44:12.953Z,31
2018-01-19T13:45:18.522Z,31
2018-01-19T13:46:23.723Z,31
2018-01-19T13:47:29.195Z,31
2018-01-19T13:48:34.941Z,31
2018-01-19T13:49:40.369Z,31
2018-01-19T13:50:46.017Z,31
2018-01-19T13:51:51.778Z,31
2018-01-19T13:52:56.974Z,40
2018-01-19T13:54:02.424Z,40
2018-01-19T13:55:08.138Z,40
2018-01-19T13:56:13.589Z,40
2018-01-19T13:57:18.518Z,40
2018-01-19T13:58:23.697Z,40
2018-01-19T13:59:28.628Z,40
2018-01-19T14:00:34.369Z,40
2018-01-19T14:01:39.829Z,24
2018-01-19T14:02:45.308Z,24
2018-01-19T14:03:50.765Z,24
2018-01-19T14:04:55.933Z,24
2018-01-19T14:06:00.817Z,24
2018-01-19T14:07:06.250Z,24
2018-01-19T14:08:11.467Z,40
2018-01-19T14:09:16.860Z,40
2018-01-19T14:10:22.596Z,40
2018-01-19T14:11:28.436Z,40
2018-01-19T14:12:34.258Z,40
2018-01-19T14:13:39.721Z,40
2018-01-19T14:14:44.841Z,40
2018-01-19T14:15:49.982Z,40
2018-01-19T14:16:55.162Z,40
2018-01-19T14:18:00.065Z,31
2018-01-19T14:19:05.902Z,31
2018-01-19T14:20:11.066Z,31
2018-01-19T14:21:16.550Z,40
2018-01-19T14:22:21.707Z,40
2018-01-19T14:23:27.216Z,40
2018-01-19T14:24:32.373Z,40
2018-01-19T14:25:37.858Z,40
2018-01-19T14:26:43.028Z,40
2018-01-19T14:27:48.569Z,24
2018-01-19T14:28:53.748Z,24
2018-01-19T14:29:58.998Z,24
2018-01-19T14:31:04.771Z,40
2018-01-19T14:32:09.977Z,40
2018-01-19T14:33:15.468Z,40
2018-01-19T14:34:20.720Z,40
2018-01-19T14:35:26.497Z,55
2018-01-19T14:36:32.262Z,40
2018-01-19T14:37:37.167Z,40
2018-01-19T14:38:42.083Z,40
2018-01-19T14:39:47.797Z,40
2018-01-19T14:40:52.721Z,40
2018-01-19T14:41:58.148Z,40
2018-01-19T14:43:03.898Z,40
2018-01-19T14:44:09.079Z,40
2018-01-19T14:45:14.547Z,24
2018-01-19T14:46:19.992Z,24
2018-01-19T14:47:24.879Z,24
2018-01-19T14:48:30.388Z,24
2018-01-19T14:49:35.587Z,24
2018-01-19T14:50:41.094Z,24
2018-01-19T14:51:46.578Z,24
2018-01-19T14:52:51.515Z,24
2018-01-19T14:53:56.967Z,24
2018-01-19T14:55:02.765Z,24
2018-01-19T14:56:08.062Z,24
2018-01-19T14:57:12.929Z,24
2018-01-19T14:58:18.445Z,24
2018-01-19T14:59:23.644Z,24
2018-01-19T15:00:28.803Z,24
2018-01-19T15:01:34.411Z,24
2018-01-19T15:02:39.867Z,24
2018-01-19T15:03:45.338Z,6
2018-01-19T15:04:50.813Z,6
2018-01-19T15:05:55.982Z,6
2018-01-19T15:07:01.525Z,6
2018-01-19T15:08:06.690Z,24
2018-01-19T15:09:12.190Z,24
2018-01-19T15:10:17.893Z,24
2018-01-19T15:11:23.381Z,24
2018-01-19T15:12:28.638Z,24
2018-01-19T15:13:34.106Z,24
2018-01-19T15:14:39.275Z,24
2018-01-19T15:15:44.971Z,24
2018-01-19T15:16:50.445Z,24
2018-01-19T15:17:55.059Z,24
2018-01-19T15:19:00.572Z,24
2018-01-19T15:20:05.491Z,24
2018-01-19T15:21:11.641Z,24
2018-01-19T15:22:17.419Z,6
2018-01-19T15:23:22.328Z,6
2018-01-19T15:24:28.201Z,6
2018-01-19T15:25:33.813Z,6
2018-01-19T15:26:38.982Z,0
2018-01-19T15:27:45.129Z,0
2018-01-19T15:28:50.441Z,0
2018-01-19T15:29:55.055Z,0
2018-01-19T15:31:00.579Z,0
2018-01-19T15:32:05.752Z,0
2018-01-19T15:33:10.662Z,0
2018-01-19T15:34:16.003Z,0
2018-01-19T15:35:21.256Z,0
2018-01-19T15:36:26.911Z,0
2018-01-19T15:37:32.088Z,0
2018-01-19T15:38:36.407Z,0
2018-01-19T15:39:41.945Z,0
2018-01-19T15:40:47.401Z,0
2018-01-19T15:41:52.778Z,0
2018-01-19T15:42:57.943Z,0
2018-01-19T15:44:02.842Z,0
2018-01-19T15:45:08.307Z,0